createdAt,value
2018-01-14T00:01:00.319Z,23.33
2018-01-14T00:03:26.300Z,23.40
2018-01-14T00:05:52.309Z,21.53
2018-01-14T00:08:18.256Z,23.47
2018-01-14T00:10:44.244Z,21.80
2018-01-14T00:13:10.192Z,23.00
2018-01-14T00:15:36.248Z,24.47
2018-01-14T00:18:02.216Z,23.53
2018-01-14T00:20:28.284Z,21.90
2018-01-14T00:22:54.256Z,24.50
2018-01-14T00:25:20.232Z,21.77
2018-01-14T00:27:46.204Z,22.13
2018-01-14T00:30:12.176Z,24.83
2018-01-14T00:32:38.169Z,24.63
2018-01-14T00:35:04.123Z,23.13
2018-01-14T00:37:30.068Z,23.97
2018-01-14T00:39:56.053Z,21.83
2018-01-14T00:42:22.735Z,25.17
2018-01-14T00:44:48.673Z,23.10
2018-01-14T00:47:14.661Z,23.00
2018-01-14T00:49:40.636Z,22.43
2018-01-14T00:52:06.660Z,22.93
2018-01-14T00:54:32.603Z,24.57
2018-01-14T00:56:58.567Z,21.87
2018-01-14T00:59:24.503Z,22.37
2018-01-14T01:01:50.513Z,23.23
2018-01-14T01:04:16.452Z,23.30
2018-01-14T01:06:42.663Z,22.43
2018-01-14T01:09:09.348Z,23.97
2018-01-14T01:11:35.321Z,24.60
2018-01-14T01:14:01.297Z,23.40
2018-01-14T01:16:28.154Z,22.50
2018-01-14T01:18:54.851Z,23.00
2018-01-14T01:21:20.779Z,23.77
2018-01-14T01:23:46.760Z,22.90
2018-01-14T01:26:12.703Z,22.40
2018-01-14T01:28:39.384Z,24.77
2018-01-14T01:31:05.377Z,24.40
2018-01-14T01:33:31.344Z,23.17
2018-01-14T01:35:57.321Z,24.43
2018-01-14T01:38:23.276Z,25.33
2018-01-14T01:40:49.247Z,24.20
2018-01-14T01:43:15.923Z,21.80
2018-01-14T01:45:41.892Z,22.83
2018-01-14T01:48:07.871Z,26.47
2018-01-14T01:50:33.811Z,23.33
2018-01-14T01:52:59.784Z,24.60
2018-01-14T01:55:25.748Z,25.27
2018-01-14T01:57:51.684Z,24.50
2018-01-14T02:00:17.647Z,25.70
2018-01-14T02:02:44.332Z,25.10
2018-01-14T02:05:10.312Z,22.47
2018-01-14T02:07:36.292Z,24.93
2018-01-14T02:10:02.229Z,22.73
2018-01-14T02:12:28.356Z,23.27
2018-01-14T02:14:54.308Z,25.53
2018-01-14T02:17:20.255Z,23.97
2018-01-14T02:19:46.223Z,23.27
2018-01-14T02:22:12.227Z,23.27
2018-01-14T02:24:38.172Z,35.30
2018-01-14T02:27:04.175Z,61.93
2018-01-14T02:29:30.156Z,33.30
2018-01-14T02:31:56.127Z,32.80
2018-01-14T02:34:22.111Z,26.90
2018-01-14T02:36:48.081Z,31.10
2018-01-14T02:39:14.792Z,29.17
2018-01-14T02:41:40.745Z,24.57
2018-01-14T02:44:06.728Z,22.77
2018-01-14T02:46:32.673Z,24.03
2018-01-14T02:48:58.677Z,22.50
2018-01-14T02:51:24.694Z,24.90
2018-01-14T02:53:50.677Z,25.17
2018-01-14T02:56:16.627Z,22.23
2018-01-14T02:58:42.597Z,22.93
2018-01-14T03:01:08.581Z,24.70
2018-01-14T03:03:34.576Z,24.70
2018-01-14T03:06:00.523Z,22.53
2018-01-14T03:08:27.269Z,23.50
2018-01-14T03:10:53.250Z,22.57
2018-01-14T03:13:19.207Z,24.50
2018-01-14T03:15:45.194Z,24.23
2018-01-14T03:18:11.889Z,23.67
2018-01-14T03:20:37.864Z,24.03
2018-01-14T03:23:04.617Z,23.63
2018-01-14T03:25:30.562Z,24.37
2018-01-14T03:27:57.340Z,23.13
2018-01-14T03:30:23.319Z,24.07
2018-01-14T03:32:49.305Z,25.90
2018-01-14T03:35:15.245Z,24.50
2018-01-14T03:37:41.193Z,22.10
2018-01-14T03:40:07.169Z,23.47
2018-01-14T03:42:33.148Z,24.90
2018-01-14T03:44:59.134Z,21.57
2018-01-14T03:47:25.153Z,21.90
2018-01-14T03:49:51.104Z,22.33
2018-01-14T03:52:17.057Z,24.20
2018-01-14T03:54:43.033Z,22.70
2018-01-14T03:57:08.989Z,22.77
2018-01-14T03:59:34.985Z,23.40
2018-01-14T04:02:01.670Z,22.07
2018-01-14T04:04:27.660Z,22.83
2018-01-14T04:06:53.636Z,22.23
2018-01-14T04:09:19.592Z,23.13
2018-01-14T04:11:45.560Z,21.90
2018-01-14T04:14:11.505Z,21.00
2018-01-14T04:16:38.242Z,21.40
2018-01-14T04:19:04.193Z,21.77
2018-01-14T04:21:30.917Z,22.60
2018-01-14T04:23:56.891Z,21.83
2018-01-14T04:26:23.602Z,21.87
2018-01-14T04:28:49.596Z,23.17
2018-01-14T04:31:15.549Z,23.23
2018-01-14T04:33:41.501Z,21.37
2018-01-14T04:36:07.476Z,23.10
2018-01-14T04:38:34.206Z,22.30
2018-01-14T04:41:00.189Z,21.77
2018-01-14T04:43:26.226Z,22.63
2018-01-14T04:45:52.200Z,23.53
2018-01-14T04:48:18.149Z,23.00
2018-01-14T04:50:44.127Z,22.03
2018-01-14T04:53:10.102Z,22.83
2018-01-14T04:55:36.110Z,21.30
2018-01-14T04:58:02.052Z,23.60
2018-01-14T05:00:28.045Z,23.37
2018-01-14T05:02:54.769Z,21.43
2018-01-14T05:05:20.734Z,21.10
2018-01-14T05:07:47.468Z,21.23
2018-01-14T05:10:13.440Z,20.80
2018-01-14T05:12:40.140Z,20.70
2018-01-14T05:15:06.113Z,23.53
2018-01-14T05:17:32.820Z,22.70
2018-01-14T05:19:58.825Z,20.07
2018-01-14T05:22:24.832Z,22.47
2018-01-14T05:24:51.552Z,20.90
2018-01-14T05:27:17.496Z,20.97
2018-01-14T05:29:43.497Z,22.07
2018-01-14T05:32:09.443Z,19.07
2018-01-14T05:34:35.389Z,21.20
2018-01-14T05:37:01.363Z,20.83
2018-01-14T05:39:27.320Z,21.80
2018-01-14T05:41:53.333Z,20.90
2018-01-14T05:44:19.282Z,19.20
2018-01-14T05:46:46.044Z,19.77
2018-01-14T05:49:12.721Z,22.23
2018-01-14T05:51:38.668Z,20.40
2018-01-14T05:54:04.649Z,20.70
2018-01-14T05:56:31.340Z,22.23
2018-01-14T05:58:57.525Z,22.30
2018-01-14T06:01:24.217Z,21.97
2018-01-14T06:03:50.171Z,20.07
2018-01-14T06:06:16.156Z,23.43
2018-01-14T06:08:42.101Z,22.90
2018-01-14T06:11:08.114Z,21.77
2018-01-14T06:13:34.097Z,21.57
2018-01-14T06:16:00.069Z,21.50
2018-01-14T06:18:26.056Z,23.20
2018-01-14T06:20:52.765Z,22.37
2018-01-14T06:23:18.720Z,22.27
2018-01-14T06:25:44.668Z,21.53
2018-01-14T06:28:11.403Z,21.27
2018-01-14T06:30:38.860Z,23.33
2018-01-14T06:33:04.833Z,22.40
2018-01-14T06:35:31.521Z,21.10
2018-01-14T06:37:57.517Z,21.50
2018-01-14T06:40:24.233Z,21.90
2018-01-14T06:42:50.210Z,21.97
2018-01-14T06:45:16.937Z,20.37
2018-01-14T06:47:44.369Z,22.07
2018-01-14T06:50:10.385Z,21.23
2018-01-14T06:52:36.384Z,21.67
2018-01-14T06:55:02.365Z,23.20
2018-01-14T06:57:28.325Z,20.60
2018-01-14T06:59:54.312Z,20.60
2018-01-14T07:02:21.001Z,23.80
2018-01-14T07:04:46.993Z,26.43
2018-01-14T07:07:13.685Z,27.70
2018-01-14T07:09:39.670Z,30.57
2018-01-14T07:12:05.662Z,28.37
2018-01-14T07:14:31.612Z,27.37
2018-01-14T07:16:57.569Z,29.90
2018-01-14T07:19:23.590Z,35.77
2018-01-14T07:21:49.573Z,30.13
2018-01-14T07:24:16.274Z,30.83
2018-01-14T07:26:42.221Z,40.07
2018-01-14T07:29:08.242Z,46.20
2018-01-14T07:31:34.269Z,45.20
2018-01-14T07:34:00.213Z,40.67
2018-01-14T07:36:26.166Z,51.10
2018-01-14T07:38:52.148Z,35.53
2018-01-14T07:41:18.120Z,26.50
2018-01-14T07:43:44.065Z,26.90
2018-01-14T07:46:10.888Z,29.77
2018-01-14T07:48:37.250Z,38.50
2018-01-14T07:51:03.294Z,34.00
2018-01-14T07:53:29.252Z,28.97
2018-01-14T07:55:55.200Z,24.83
2018-01-14T07:58:21.993Z,21.60
2018-01-14T08:00:47.933Z,20.77
2018-01-14T08:03:13.913Z,21.23
2018-01-14T08:05:39.883Z,20.00
2018-01-14T08:08:05.853Z,21.10
2018-01-14T08:10:31.830Z,19.67
2018-01-14T08:12:57.819Z,22.13
2018-01-14T08:15:23.813Z,22.80
2018-01-14T08:17:50.511Z,19.70
2018-01-14T08:20:16.480Z,22.10
2018-01-14T08:22:42.425Z,21.20
2018-01-14T08:25:09.149Z,22.00
2018-01-14T08:27:35.098Z,20.80
2018-01-14T08:30:01.109Z,21.70
2018-01-14T08:32:27.220Z,21.07
2018-01-14T08:34:53.209Z,21.80
2018-01-14T08:37:19.157Z,20.07
2018-01-14T08:39:45.141Z,21.23
2018-01-14T08:42:11.165Z,21.97
2018-01-14T08:44:37.145Z,22.27
2018-01-14T08:47:03.092Z,21.33
2018-01-14T08:49:29.108Z,20.97
2018-01-14T08:51:55.093Z,20.80
2018-01-14T08:54:21.778Z,22.37
2018-01-14T08:56:47.725Z,20.93
2018-01-14T08:59:13.748Z,21.20
2018-01-14T09:01:46.049Z,21.37
2018-01-14T09:04:12.025Z,19.87
2018-01-14T09:06:38.806Z,20.80
2018-01-14T09:09:04.777Z,20.77
2018-01-14T09:11:30.729Z,20.20
2018-01-14T09:13:56.712Z,20.23
2018-01-14T09:16:22.684Z,19.10
2018-01-14T09:18:48.669Z,20.30
2018-01-14T09:21:14.609Z,20.33
2018-01-14T09:23:40.573Z,18.80
2018-01-14T09:26:06.569Z,18.07
2018-01-14T09:28:32.549Z,17.67
2018-01-14T09:31:01.358Z,18.67
2018-01-14T09:33:27.340Z,21.53
2018-01-14T09:35:54.109Z,18.40
2018-01-14T09:38:20.061Z,19.40
2018-01-14T09:40:46.049Z,17.33
2018-01-14T09:43:12.737Z,20.13
2018-01-14T09:45:38.769Z,21.00
2018-01-14T09:48:04.745Z,18.80
2018-01-14T09:50:30.721Z,18.20
2018-01-14T09:52:57.449Z,18.70
2018-01-14T09:55:23.405Z,20.30
2018-01-14T09:57:50.133Z,17.17
2018-01-14T10:00:16.103Z,18.53
2018-01-14T10:02:42.839Z,18.10
2018-01-14T10:05:08.809Z,19.13
2018-01-14T10:07:34.757Z,17.97
2018-01-14T10:10:00.733Z,17.97
2018-01-14T10:12:26.693Z,18.17
2018-01-14T10:14:52.649Z,19.50
2018-01-14T10:17:18.624Z,19.00
2018-01-14T10:19:44.620Z,19.03
2018-01-14T10:22:10.585Z,16.23
2018-01-14T10:24:36.529Z,18.80
2018-01-14T10:27:02.529Z,18.17
2018-01-14T10:29:28.582Z,18.03
2018-01-14T10:31:54.544Z,18.37
2018-01-14T10:34:20.517Z,17.73
2018-01-14T10:36:47.205Z,17.03
2018-01-14T10:39:13.197Z,16.40
2018-01-14T10:41:39.912Z,19.27
2018-01-14T10:44:05.860Z,17.33
2018-01-14T10:46:31.864Z,18.43
2018-01-14T10:48:57.832Z,19.87
2018-01-14T10:51:23.837Z,26.30
2018-01-14T10:53:49.776Z,22.30
2018-01-14T10:56:15.773Z,44.87
2018-01-14T10:58:42.464Z,20.57
2018-01-14T11:01:08.489Z,19.60
2018-01-14T11:03:34.431Z,18.77
2018-01-14T11:06:00.408Z,19.27
2018-01-14T11:08:26.412Z,17.70
2018-01-14T11:10:52.377Z,16.93
2018-01-14T11:13:19.099Z,17.07
2018-01-14T11:15:45.064Z,16.90
2018-01-14T11:18:11.805Z,17.20
2018-01-14T11:20:37.833Z,18.87
2018-01-14T11:23:03.801Z,17.07
2018-01-14T11:25:30.554Z,17.80
2018-01-14T11:27:57.276Z,18.90
2018-01-14T11:30:23.253Z,17.00
2018-01-14T11:32:49.973Z,19.23
2018-01-14T11:35:16.740Z,18.53
2018-01-14T11:37:42.713Z,17.50
2018-01-14T11:40:08.713Z,16.27
2018-01-14T11:42:35.429Z,18.93
2018-01-14T11:45:01.400Z,17.77
2018-01-14T11:47:27.369Z,18.00
2018-01-14T11:49:53.345Z,17.03
2018-01-14T11:52:19.325Z,18.00
2018-01-14T11:54:46.008Z,16.83
2018-01-14T11:57:12.007Z,18.90
2018-01-14T11:59:38.721Z,20.57
2018-01-14T12:02:04.706Z,31.00
2018-01-14T12:04:30.697Z,31.90
2018-01-14T12:06:56.653Z,24.20
2018-01-14T12:09:22.645Z,23.37
2018-01-14T12:11:48.608Z,19.80
2018-01-14T12:14:14.621Z,18.60
2018-01-14T12:16:40.610Z,18.90
2018-01-14T12:19:07.337Z,18.90
2018-01-14T12:21:33.330Z,18.40
2018-01-14T12:23:59.316Z,17.80
2018-01-14T12:26:25.307Z,19.00
2018-01-14T12:28:51.297Z,18.33
2018-01-14T12:31:17.989Z,19.67
2018-01-14T12:36:38.674Z,19.60
2018-01-14T12:39:04.622Z,20.67
2018-01-14T12:41:30.613Z,22.67
2018-01-14T12:43:56.622Z,18.23
2018-01-14T12:46:22.634Z,22.70
2018-01-14T12:48:49.390Z,23.33
2018-01-14T12:51:15.336Z,20.83
2018-01-14T12:53:42.065Z,19.60
2018-01-14T12:56:08.064Z,24.03
2018-01-14T12:58:34.013Z,20.83
2018-01-14T13:01:00.021Z,21.50
2018-01-14T13:03:25.969Z,20.13
2018-01-14T13:05:52.029Z,19.53
2018-01-14T13:08:18.037Z,19.53
2018-01-14T13:10:44.012Z,20.40
2018-01-14T13:13:09.993Z,20.90
2018-01-14T13:15:35.983Z,19.50
2018-01-14T13:18:01.961Z,20.43
2018-01-14T13:20:28.648Z,20.67
2018-01-14T13:22:54.666Z,19.87
2018-01-14T13:25:20.670Z,19.30
2018-01-14T13:27:47.471Z,19.90
2018-01-14T13:30:13.460Z,18.43
2018-01-14T13:32:40.192Z,19.67
2018-01-14T13:35:06.170Z,19.33
2018-01-14T13:37:32.160Z,21.07
2018-01-14T13:39:58.153Z,19.57
2018-01-14T13:42:24.113Z,20.00
2018-01-14T13:44:50.125Z,17.47
2018-01-14T13:47:16.117Z,19.80
2018-01-14T13:49:42.077Z,20.70
2018-01-14T13:52:08.057Z,20.13
2018-01-14T13:54:34.005Z,21.10
2018-01-14T13:56:59.989Z,18.60
2018-01-14T13:59:25.933Z,20.87
2018-01-14T14:01:51.897Z,21.00
2018-01-14T14:04:17.922Z,19.93
2018-01-14T14:06:43.865Z,21.70
2018-01-14T14:09:09.824Z,19.87
2018-01-14T14:11:35.809Z,22.07
2018-01-14T14:14:01.753Z,24.50
2018-01-14T14:16:27.729Z,28.03
2018-01-14T14:18:53.709Z,21.83
2018-01-14T14:21:19.705Z,20.63
2018-01-14T14:23:45.640Z,16.90
2018-01-14T14:26:11.619Z,19.57
2018-01-14T14:28:37.581Z,19.03
2018-01-14T14:31:03.561Z,19.50
2018-01-14T14:33:29.514Z,21.27
2018-01-14T14:35:56.251Z,18.37
2018-01-14T14:38:22.286Z,17.93
2018-01-14T14:40:48.965Z,20.00
2018-01-14T14:43:14.902Z,19.03
2018-01-14T14:45:40.880Z,20.53
2018-01-14T14:48:06.848Z,19.70
2018-01-14T14:50:33.573Z,19.80
2018-01-14T14:52:59.549Z,18.10
2018-01-14T14:55:26.270Z,19.40
2018-01-14T14:57:53.021Z,19.60
2018-01-14T15:00:19.081Z,20.00
2018-01-14T15:02:45.806Z,20.13
2018-01-14T15:05:11.830Z,19.77
2018-01-14T15:07:37.772Z,20.20
2018-01-14T15:10:03.754Z,21.03
2018-01-14T15:12:30.491Z,19.80
2018-01-14T15:14:56.466Z,21.43
2018-01-14T15:17:22.693Z,19.10
2018-01-14T15:19:48.684Z,20.00
2018-01-14T15:22:14.629Z,18.50
2018-01-14T15:24:40.609Z,20.80
2018-01-14T15:27:06.550Z,19.60
2018-01-14T15:29:32.528Z,19.37
2018-01-14T15:31:58.506Z,19.10
2018-01-14T15:34:24.520Z,21.77
2018-01-14T15:36:51.300Z,18.83
2018-01-14T15:39:17.276Z,20.03
2018-01-14T15:41:43.268Z,19.27
2018-01-14T15:44:09.237Z,19.13
2018-01-14T15:46:35.247Z,20.47
2018-01-14T15:49:01.265Z,19.37
2018-01-14T15:51:27.946Z,20.57
2018-01-14T15:53:53.946Z,21.47
2018-01-14T15:56:20.726Z,20.33
2018-01-14T15:58:46.707Z,20.23
2018-01-14T16:01:12.717Z,19.10
2018-01-14T16:03:38.673Z,21.60
2018-01-14T16:06:05.409Z,20.43
2018-01-14T16:08:31.483Z,19.63
2018-01-14T16:10:58.275Z,21.20
2018-01-14T16:13:24.300Z,22.07
2018-01-14T16:15:50.280Z,21.67
2018-01-14T16:18:16.230Z,21.53
2018-01-14T16:20:42.205Z,23.03
2018-01-14T16:23:08.155Z,21.97
2018-01-14T16:25:34.171Z,22.63
2018-01-14T16:28:00.953Z,22.93
2018-01-14T16:30:26.942Z,24.63
2018-01-14T16:32:52.924Z,26.37
2018-01-14T16:35:18.902Z,22.50
2018-01-14T16:37:45.729Z,21.47
2018-01-14T16:40:11.701Z,23.23
2018-01-14T16:42:37.730Z,19.80
2018-01-14T16:45:03.713Z,23.30
2018-01-14T16:47:29.710Z,24.37
2018-01-14T16:49:56.479Z,21.53
2018-01-14T16:52:23.190Z,22.00
2018-01-14T16:54:49.173Z,22.43
2018-01-14T16:57:15.868Z,22.63
2018-01-14T16:59:41.845Z,20.73
2018-01-14T17:02:07.826Z,21.23
2018-01-14T17:04:34.184Z,21.03
2018-01-14T17:07:00.125Z,22.50
2018-01-14T17:09:26.107Z,20.37
2018-01-14T17:11:52.852Z,21.10
2018-01-14T17:14:19.545Z,22.50
2018-01-14T17:16:45.537Z,22.90
2018-01-14T17:19:11.518Z,20.70
2018-01-14T17:21:37.491Z,24.77
2018-01-14T17:24:03.909Z,23.63
2018-01-14T17:26:30.255Z,23.10
2018-01-14T17:28:56.252Z,20.97
2018-01-14T17:31:22.954Z,22.50
2018-01-14T17:33:48.937Z,21.40
2018-01-14T17:36:15.664Z,21.00
2018-01-14T17:38:41.682Z,23.30
2018-01-14T17:41:07.665Z,20.37
2018-01-14T17:43:34.430Z,22.80
2018-01-14T17:46:00.472Z,21.47
2018-01-14T17:48:26.836Z,22.27
2018-01-14T17:50:53.179Z,21.20
2018-01-14T17:53:19.524Z,22.13
2018-01-14T17:55:45.473Z,21.43
2018-01-14T17:58:11.445Z,22.27
2018-01-14T18:00:37.432Z,22.80
2018-01-14T18:03:03.457Z,21.20
2018-01-14T18:05:29.814Z,20.40
2018-01-14T18:07:56.158Z,21.27
2018-01-14T18:10:22.145Z,20.70
2018-01-14T18:12:48.869Z,22.67
2018-01-14T18:15:15.195Z,23.13
2018-01-14T18:17:41.537Z,23.50
2018-01-14T18:20:07.880Z,22.77
2018-01-14T18:22:33.898Z,23.30
2018-01-14T18:24:59.923Z,24.97
2018-01-14T18:27:26.298Z,23.77
2018-01-14T18:29:52.643Z,25.17
2018-01-14T18:32:18.678Z,23.80
2018-01-14T18:34:45.386Z,24.67
2018-01-14T18:37:12.158Z,23.70
2018-01-14T18:39:38.533Z,22.93
2018-01-14T18:42:04.533Z,22.33
2018-01-14T18:44:31.735Z,26.20
2018-01-14T18:46:57.780Z,22.53
2018-01-14T18:49:23.776Z,24.50
2018-01-14T18:51:50.461Z,23.20
2018-01-14T18:54:16.478Z,24.03
2018-01-14T18:56:43.430Z,24.27
2018-01-14T18:59:09.440Z,21.27
2018-01-14T19:01:35.399Z,20.57
2018-01-14T19:04:01.516Z,23.20
2018-01-14T19:06:28.256Z,24.43
2018-01-14T19:08:54.287Z,20.27
2018-01-14T19:11:20.245Z,20.50
2018-01-14T19:13:46.983Z,24.07
2018-01-14T19:16:13.082Z,22.27
2018-01-14T19:18:39.111Z,21.40
2018-01-14T19:21:05.107Z,21.53
2018-01-14T19:23:31.916Z,21.63
2018-01-14T19:25:57.935Z,21.23
2018-01-14T19:28:23.924Z,22.93
2018-01-14T19:30:49.943Z,21.33
2018-01-14T19:33:15.925Z,19.20
2018-01-14T19:35:41.918Z,23.10
2018-01-14T19:38:07.986Z,22.50
2018-01-14T19:40:34.752Z,21.17
2018-01-14T19:43:00.801Z,21.87
2018-01-14T19:45:26.826Z,20.87
2018-01-14T19:47:52.888Z,19.33
2018-01-14T19:50:18.836Z,20.20
2018-01-14T19:52:44.840Z,21.80
2018-01-14T19:55:10.817Z,20.77
2018-01-14T19:57:36.848Z,19.80
2018-01-14T20:00:02.930Z,15.10
2018-01-14T20:02:29.625Z,13.40
2018-01-14T20:04:55.620Z,13.63
2018-01-14T20:07:22.384Z,11.57
2018-01-14T20:09:48.408Z,11.07
2018-01-14T20:12:15.205Z,10.43
2018-01-14T20:14:41.191Z,9.00
2018-01-14T20:17:07.169Z,8.20
2018-01-14T20:19:33.235Z,9.10
2018-01-14T20:21:59.240Z,6.37
2018-01-14T20:24:25.260Z,9.47
2018-01-14T20:26:51.276Z,9.10
2018-01-14T20:29:18.039Z,8.20
2018-01-14T20:31:44.788Z,9.80
2018-01-14T20:34:11.582Z,8.83
2018-01-14T20:36:37.585Z,8.97
2018-01-14T20:39:04.428Z,8.80
2018-01-14T20:41:30.464Z,8.60
2018-01-14T20:43:57.199Z,9.50
2018-01-14T20:46:23.230Z,8.60
2018-01-14T20:48:49.233Z,9.03
2018-01-14T20:51:15.230Z,10.13
2018-01-14T20:53:42.006Z,8.93
2018-01-14T20:56:07.992Z,9.43
2018-01-14T20:58:34.013Z,9.43
2018-01-14T21:01:00.004Z,8.53
2018-01-14T21:03:26.039Z,10.27
2018-01-14T21:05:52.729Z,8.83
2018-01-14T21:08:18.728Z,9.23
2018-01-14T21:10:45.516Z,9.30
2018-01-14T21:13:11.568Z,8.30
2018-01-14T21:15:37.555Z,8.07
2018-01-14T21:18:04.360Z,9.40
2018-01-14T21:20:30.369Z,9.50
2018-01-14T21:22:56.368Z,9.80
2018-01-14T21:25:22.592Z,9.00
2018-01-14T21:27:48.592Z,9.53
2018-01-14T21:30:14.595Z,10.57
2018-01-14T21:32:41.359Z,9.57
2018-01-14T21:35:08.112Z,8.63
2018-01-14T21:37:34.876Z,8.50
2018-01-14T21:40:00.980Z,9.47
2018-01-14T21:42:26.976Z,8.10
2018-01-14T21:44:53.001Z,8.93
2018-01-14T21:47:19.008Z,10.30
2018-01-14T21:49:45.745Z,10.23
2018-01-14T21:52:11.781Z,9.33
2018-01-14T21:54:37.781Z,9.73
2018-01-14T21:57:03.822Z,10.07
2018-01-14T21:59:29.826Z,9.53
2018-01-14T22:01:55.879Z,9.00
2018-01-14T22:04:21.869Z,9.30
2018-01-14T22:06:47.896Z,9.03
2018-01-14T22:09:13.908Z,9.17
2018-01-14T22:11:39.939Z,9.53
2018-01-14T22:14:05.957Z,9.50
2018-01-14T22:16:32.030Z,9.60
2018-01-14T22:18:59.509Z,9.93
2018-01-14T22:21:25.453Z,8.47
2018-01-14T22:23:51.479Z,10.97
2018-01-14T22:26:17.607Z,8.57
2018-01-14T22:28:43.647Z,8.53
2018-01-14T22:31:09.678Z,7.10
2018-01-14T22:33:35.704Z,8.87
2018-01-14T22:36:01.719Z,11.30
2018-01-14T22:38:27.756Z,8.43
2018-01-14T22:40:53.776Z,7.93
2018-01-14T22:43:20.470Z,7.83
2018-01-14T22:45:46.459Z,8.80
2018-01-14T22:48:13.192Z,8.87
2018-01-14T22:50:39.191Z,8.30
2018-01-14T22:53:05.184Z,7.83
2018-01-14T22:55:31.934Z,8.73
2018-01-14T22:57:58.617Z,7.50
2018-01-14T23:00:24.643Z,8.40
2018-01-14T23:02:50.612Z,8.10
2018-01-14T23:05:16.605Z,8.80
2018-01-14T23:07:43.293Z,8.33
2018-01-14T23:10:09.265Z,10.57
2018-01-14T23:12:35.214Z,10.07
2018-01-14T23:15:07.328Z,10.60
2018-01-14T23:17:33.316Z,10.27
2018-01-14T23:19:59.313Z,9.60
2018-01-14T23:22:25.265Z,9.23
2018-01-14T23:24:51.225Z,9.10
2018-01-14T23:27:17.226Z,9.10
2018-01-14T23:29:43.177Z,9.17
2018-01-14T23:32:09.141Z,9.70
2018-01-14T23:34:35.134Z,7.80
2018-01-14T23:37:01.133Z,9.20
2018-01-14T23:39:27.103Z,10.07
2018-01-14T23:41:53.101Z,9.33
2018-01-14T23:44:19.800Z,9.83
2018-01-14T23:46:45.748Z,10.87
2018-01-14T23:49:11.713Z,10.10
2018-01-14T23:51:38.433Z,10.10
2018-01-14T23:54:04.430Z,9.50
2018-01-14T23:56:30.389Z,9.57
2018-01-14T23:58:56.377Z,8.87
